createdAt,value
2018-12-30T00:01:48.399Z,0.90
2018-12-30T00:04:20.175Z,0.80
2018-12-30T00:06:51.735Z,0.80
2018-12-30T00:09:23.201Z,0.80
2018-12-30T00:11:54.373Z,0.90
2018-12-30T00:14:25.765Z,0.80
2018-12-30T00:16:58.899Z,0.80
2018-12-30T00:19:30.137Z,0.80
2018-12-30T00:22:01.391Z,0.80
2018-12-30T00:24:33.014Z,0.80
2018-12-30T00:27:06.211Z,0.80
2018-12-30T00:29:37.536Z,0.80
2018-12-30T00:32:08.728Z,0.80
2018-12-30T00:34:40.079Z,0.90
2018-12-30T00:37:11.287Z,0.90
2018-12-30T00:39:42.759Z,0.90
2018-12-30T00:42:14.061Z,0.90
2018-12-30T00:44:45.507Z,0.90
2018-12-30T00:47:16.916Z,0.90
2018-12-30T00:49:48.249Z,0.90
2018-12-30T00:52:19.460Z,0.90
2018-12-30T00:54:51.287Z,0.90
2018-12-30T00:57:22.505Z,1.00
2018-12-30T00:59:53.862Z,1.00
2018-12-30T01:02:24.965Z,1.00
2018-12-30T01:04:56.380Z,1.00
2018-12-30T01:07:27.654Z,1.00
2018-12-30T01:09:59.367Z,1.00
2018-12-30T01:12:30.459Z,1.00
2018-12-30T01:15:01.742Z,1.00
2018-12-30T01:17:34.433Z,0.90
2018-12-30T01:20:05.787Z,0.90
2018-12-30T01:22:37.173Z,0.90
2018-12-30T01:25:08.458Z,0.90
2018-12-30T01:27:39.704Z,0.90
2018-12-30T01:30:11.070Z,0.80
2018-12-30T01:32:42.621Z,0.90
2018-12-30T01:35:15.016Z,0.90
2018-12-30T01:37:46.128Z,0.80
2018-12-30T01:40:17.382Z,0.90
2018-12-30T01:42:49.824Z,0.90
2018-12-30T01:45:21.048Z,0.90
2018-12-30T01:47:52.214Z,0.90
2018-12-30T01:50:25.192Z,0.90
2018-12-30T01:52:56.364Z,0.90
2018-12-30T01:55:28.009Z,0.90
2018-12-30T01:58:01.193Z,1.00
2018-12-30T02:00:32.437Z,1.00
2018-12-30T02:03:03.586Z,1.00
2018-12-30T02:05:35.280Z,1.00
2018-12-30T02:08:06.374Z,1.00
2018-12-30T02:10:37.834Z,1.00
2018-12-30T02:13:08.986Z,1.00
2018-12-30T02:15:40.283Z,1.00
2018-12-30T02:18:11.450Z,1.00
2018-12-30T02:20:42.688Z,1.10
2018-12-30T02:23:14.651Z,1.10
2018-12-30T02:25:45.821Z,1.10
2018-12-30T02:28:17.764Z,1.00
2018-12-30T02:30:49.012Z,1.00
2018-12-30T02:33:20.227Z,0.90
2018-12-30T02:35:51.387Z,0.90
2018-12-30T02:38:23.443Z,0.90
2018-12-30T02:40:54.844Z,0.90
2018-12-30T02:43:25.924Z,0.80
2018-12-30T02:45:57.194Z,0.80
2018-12-30T02:48:28.878Z,0.80
2018-12-30T02:51:00.221Z,0.80
2018-12-30T02:53:31.394Z,0.80
2018-12-30T02:56:05.077Z,0.80
2018-12-30T02:58:36.923Z,0.80
2018-12-30T03:01:08.583Z,0.90
2018-12-30T03:03:39.781Z,0.90
2018-12-30T03:06:10.929Z,0.90
2018-12-30T03:08:42.083Z,0.90
2018-12-30T03:11:13.332Z,1.00
2018-12-30T03:13:44.432Z,1.00
2018-12-30T03:16:15.948Z,1.00
2018-12-30T03:18:47.073Z,0.90
2018-12-30T03:21:18.311Z,1.00
2018-12-30T03:23:49.772Z,1.10
2018-12-30T03:26:21.078Z,1.10
2018-12-30T03:28:52.184Z,1.10
2018-12-30T03:31:23.822Z,1.10
2018-12-30T03:33:55.284Z,1.10
2018-12-30T03:36:26.634Z,1.10
2018-12-30T03:38:57.740Z,1.10
2018-12-30T03:41:28.941Z,1.20
2018-12-30T03:44:00.052Z,1.20
2018-12-30T03:46:31.409Z,1.20
2018-12-30T03:49:02.518Z,1.30
2018-12-30T03:51:33.874Z,1.20
2018-12-30T03:54:04.978Z,1.20
2018-12-30T03:56:36.324Z,1.30
2018-12-30T03:59:07.470Z,1.30
2018-12-30T04:01:40.123Z,1.40
2018-12-30T04:04:12.488Z,1.40
2018-12-30T04:06:45.413Z,1.40
2018-12-30T04:09:16.519Z,1.40
2018-12-30T04:11:47.862Z,1.40
2018-12-30T04:14:19.296Z,1.40
2018-12-30T04:16:52.409Z,1.40
2018-12-30T04:19:23.502Z,1.40
2018-12-30T04:21:54.701Z,1.40
2018-12-30T04:24:25.993Z,1.40
2018-12-30T04:26:57.495Z,1.40
2018-12-30T04:29:28.581Z,1.40
2018-12-30T04:32:02.337Z,1.40
2018-12-30T04:34:33.439Z,1.40
2018-12-30T04:37:04.661Z,1.30
2018-12-30T04:39:37.765Z,1.30
2018-12-30T04:42:09.070Z,1.30
2018-12-30T04:44:40.265Z,1.30
2018-12-30T04:47:11.499Z,1.40
2018-12-30T04:49:42.686Z,1.40
2018-12-30T04:52:13.925Z,1.30
2018-12-30T04:54:45.026Z,1.30
2018-12-30T04:57:17.562Z,1.30
2018-12-30T04:59:48.681Z,1.40
2018-12-30T05:02:19.822Z,1.30
2018-12-30T05:04:50.935Z,1.30
2018-12-30T05:07:22.109Z,1.30
2018-12-30T05:09:53.241Z,1.30
2018-12-30T05:12:24.547Z,1.40
2018-12-30T05:14:55.646Z,1.40
2018-12-30T05:17:26.885Z,1.40
2018-12-30T05:19:59.033Z,1.40
2018-12-30T05:22:33.898Z,1.40
2018-12-30T05:25:03.315Z,1.50
2018-12-30T05:27:34.552Z,1.40
2018-12-30T05:30:05.891Z,1.50
2018-12-30T05:32:37.189Z,1.50
2018-12-30T05:35:08.287Z,1.50
2018-12-30T05:37:39.638Z,1.50
2018-12-30T05:40:10.766Z,1.50
2018-12-30T05:42:41.986Z,1.50
2018-12-30T05:45:13.092Z,1.50
2018-12-30T05:47:44.428Z,1.60
2018-12-30T05:50:15.525Z,1.60
2018-12-30T05:52:46.723Z,1.60
2018-12-30T05:55:17.829Z,1.60
2018-12-30T05:57:49.128Z,1.70
2018-12-30T06:00:20.235Z,1.70
2018-12-30T06:02:51.436Z,1.60
2018-12-30T06:05:22.618Z,1.70
2018-12-30T06:07:53.870Z,1.70
2018-12-30T06:10:24.983Z,1.60
2018-12-30T06:12:56.209Z,1.50
2018-12-30T06:15:27.325Z,1.60
2018-12-30T06:17:59.065Z,1.60
2018-12-30T06:20:30.169Z,1.60
2018-12-30T06:23:01.651Z,1.60
2018-12-30T06:25:32.905Z,1.60
2018-12-30T06:28:04.316Z,1.60
2018-12-30T06:30:35.435Z,1.60
2018-12-30T06:33:06.701Z,1.60
2018-12-30T06:35:38.678Z,1.50
2018-12-30T06:38:09.904Z,1.50
2018-12-30T06:40:41.009Z,1.60
2018-12-30T06:43:12.188Z,1.50
2018-12-30T06:45:43.313Z,1.60
2018-12-30T06:48:14.627Z,1.50
2018-12-30T06:50:45.748Z,1.50
2018-12-30T06:53:16.976Z,1.50
2018-12-30T06:55:48.074Z,1.60
2018-12-30T06:58:19.489Z,1.60
2018-12-30T07:00:50.762Z,1.60
2018-12-30T07:03:21.925Z,1.60
2018-12-30T07:05:53.057Z,1.60
2018-12-30T07:08:24.312Z,1.60
2018-12-30T07:10:55.461Z,1.60
2018-12-30T07:13:26.773Z,1.70
2018-12-30T07:15:57.890Z,1.70
2018-12-30T07:18:29.138Z,1.70
2018-12-30T07:21:00.242Z,1.60
2018-12-30T07:23:31.425Z,1.70
2018-12-30T07:26:02.692Z,1.70
2018-12-30T07:28:33.856Z,1.60
2018-12-30T07:31:04.923Z,1.60
2018-12-30T07:33:36.087Z,1.70
2018-12-30T07:36:07.495Z,1.70
2018-12-30T07:38:38.669Z,1.70
2018-12-30T07:41:09.745Z,1.70
2018-12-30T07:43:41.079Z,1.60
2018-12-30T07:46:12.141Z,1.70
2018-12-30T07:48:43.483Z,1.70
2018-12-30T07:51:15.002Z,1.80
2018-12-30T07:53:46.687Z,1.80
2018-12-30T07:56:17.771Z,1.90
2018-12-30T07:58:49.081Z,2.00
2018-12-30T08:01:20.164Z,1.90
2018-12-30T08:03:52.805Z,2.00
2018-12-30T08:06:23.949Z,2.00
2018-12-30T08:08:55.253Z,2.10
2018-12-30T08:11:26.367Z,2.10
2018-12-30T08:13:57.795Z,2.10
2018-12-30T08:16:29.049Z,2.00
2018-12-30T08:19:00.375Z,1.90
2018-12-30T08:21:31.488Z,1.90
2018-12-30T08:24:02.770Z,2.00
2018-12-30T08:26:34.204Z,2.00
2018-12-30T08:29:05.563Z,2.10
2018-12-30T08:31:36.721Z,2.00
2018-12-30T08:34:08.061Z,2.10
2018-12-30T08:36:39.143Z,2.20
2018-12-30T08:39:10.556Z,2.20
2018-12-30T08:41:42.023Z,2.30
2018-12-30T08:44:13.380Z,2.30
2018-12-30T08:46:44.460Z,2.30
2018-12-30T08:49:15.829Z,2.30
2018-12-30T08:51:46.900Z,2.40
2018-12-30T08:54:18.326Z,2.40
2018-12-30T08:56:49.508Z,2.40
2018-12-30T08:59:20.919Z,2.30
2018-12-30T09:01:52.151Z,2.40
2018-12-30T09:04:23.408Z,2.40
2018-12-30T09:06:54.710Z,2.30
2018-12-30T09:09:25.928Z,2.40
2018-12-30T09:11:57.280Z,2.40
2018-12-30T09:14:28.926Z,2.30
2018-12-30T09:17:00.144Z,2.30
2018-12-30T09:19:31.642Z,2.30
2018-12-30T09:22:02.832Z,2.40
2018-12-30T09:24:34.022Z,2.40
2018-12-30T09:27:05.388Z,2.50
2018-12-30T09:29:36.689Z,2.60
2018-12-30T09:32:07.777Z,2.70
2018-12-30T09:34:39.278Z,2.80
2018-12-30T09:37:10.376Z,2.80
2018-12-30T09:39:42.795Z,2.60
2018-12-30T09:42:16.182Z,2.70
2018-12-30T09:44:47.553Z,2.80
2018-12-30T09:47:18.645Z,2.80
2018-12-30T09:49:50.113Z,2.80
2018-12-30T09:52:22.994Z,2.70
2018-12-30T09:54:54.312Z,2.80
2018-12-30T09:57:25.420Z,2.90
2018-12-30T09:59:56.864Z,2.90
2018-12-30T10:02:27.992Z,2.90
2018-12-30T10:04:59.445Z,2.90
2018-12-30T10:07:30.521Z,2.70
2018-12-30T10:10:01.876Z,2.90
2018-12-30T10:12:32.942Z,2.90
2018-12-30T10:15:09.680Z,2.90
2018-12-30T10:17:37.048Z,2.90
2018-12-30T10:20:08.624Z,2.80
2018-12-30T10:22:39.714Z,2.90
2018-12-30T10:25:11.607Z,2.80
2018-12-30T10:27:43.322Z,2.80
2018-12-30T10:30:14.537Z,2.80
2018-12-30T10:32:46.006Z,2.80
2018-12-30T10:35:17.325Z,2.80
2018-12-30T10:37:48.417Z,2.80
2018-12-30T10:40:20.672Z,2.80
2018-12-30T10:42:51.776Z,2.90
2018-12-30T10:45:23.164Z,2.90
2018-12-30T10:47:54.219Z,2.80
2018-12-30T10:50:25.562Z,2.90
2018-12-30T10:52:56.926Z,3.00
2018-12-30T10:55:28.276Z,3.00
2018-12-30T10:57:59.423Z,3.20
2018-12-30T11:00:30.606Z,3.20
2018-12-30T11:03:01.720Z,3.30
2018-12-30T11:05:33.436Z,3.40
2018-12-30T11:08:04.616Z,3.40
2018-12-30T11:10:35.953Z,3.40
2018-12-30T11:13:07.058Z,3.40
2018-12-30T11:15:38.234Z,3.60
2018-12-30T11:18:09.326Z,3.60
2018-12-30T11:20:40.928Z,3.60
2018-12-30T11:23:13.190Z,3.70
2018-12-30T11:25:44.531Z,3.60
2018-12-30T11:28:15.858Z,3.70
2018-12-30T11:30:47.233Z,3.70
2018-12-30T11:33:19.730Z,3.70
2018-12-30T11:35:51.078Z,3.70
2018-12-30T11:38:22.160Z,3.60
2018-12-30T11:40:53.416Z,3.60
2018-12-30T11:43:24.546Z,3.80
2018-12-30T11:45:55.934Z,3.80
2018-12-30T11:48:27.425Z,3.70
2018-12-30T11:50:58.837Z,3.70
2018-12-30T11:53:30.094Z,3.80
2018-12-30T11:56:01.348Z,3.80
2018-12-30T11:58:33.596Z,3.80
2018-12-30T12:01:05.052Z,3.90
2018-12-30T12:03:36.220Z,3.90
2018-12-30T12:06:07.460Z,4.00
2018-12-30T12:08:40.572Z,4.10
2018-12-30T12:11:11.776Z,4.20
2018-12-30T12:13:42.885Z,4.30
2018-12-30T12:16:14.278Z,4.20
2018-12-30T12:18:45.451Z,4.20
2018-12-30T12:21:16.736Z,4.20
2018-12-30T12:23:47.827Z,4.00
2018-12-30T12:26:19.141Z,4.10
2018-12-30T12:28:50.514Z,4.00
2018-12-30T12:31:21.837Z,4.10
2018-12-30T12:33:52.976Z,4.20
2018-12-30T12:36:32.114Z,4.00
2018-12-30T12:39:22.240Z,4.00
2018-12-30T12:41:54.879Z,4.00
2018-12-30T12:44:26.330Z,4.00
2018-12-30T12:46:57.670Z,4.20
2018-12-30T12:49:28.865Z,4.30
2018-12-30T12:52:00.210Z,4.50
2018-12-30T12:54:32.310Z,4.50
2018-12-30T12:57:03.936Z,4.40
2018-12-30T13:02:28.820Z,4.40
2018-12-30T13:05:00.700Z,4.50
2018-12-30T13:07:32.452Z,4.40
2018-12-30T13:10:04.802Z,4.40
2018-12-30T13:12:36.950Z,4.50
2018-12-30T13:15:09.522Z,4.50
2018-12-30T13:17:41.464Z,4.50
2018-12-30T13:20:13.178Z,4.50
2018-12-30T13:22:45.280Z,4.50
2018-12-30T13:25:16.985Z,4.40
2018-12-30T13:27:49.128Z,4.20
2018-12-30T13:30:20.729Z,4.10
2018-12-30T13:32:51.884Z,4.20
2018-12-30T13:35:23.000Z,4.20
2018-12-30T13:37:54.144Z,4.20
2018-12-30T13:40:25.283Z,4.10
2018-12-30T13:42:56.461Z,4.20
2018-12-30T13:45:29.020Z,4.10
2018-12-30T13:48:00.728Z,4.00
2018-12-30T13:50:32.002Z,4.00
2018-12-30T13:53:03.354Z,4.10
2018-12-30T13:55:34.526Z,4.20
2018-12-30T13:58:05.974Z,4.20
2018-12-30T14:00:37.211Z,4.30
2018-12-30T14:03:08.536Z,4.30
2018-12-30T14:05:39.774Z,4.30
2018-12-30T14:08:10.962Z,4.30
2018-12-30T14:10:42.124Z,4.30
2018-12-30T14:13:13.435Z,4.40
2018-12-30T14:15:50.837Z,4.40
2018-12-30T14:18:18.309Z,4.40
2018-12-30T14:20:49.642Z,4.50
2018-12-30T14:23:20.937Z,4.50
2018-12-30T14:25:52.251Z,4.50
2018-12-30T14:28:23.910Z,4.50
2018-12-30T14:30:55.596Z,4.60
2018-12-30T14:33:27.234Z,4.60
2018-12-30T14:35:58.541Z,4.70
2018-12-30T14:38:29.854Z,4.60
2018-12-30T14:41:01.350Z,4.60
2018-12-30T14:43:33.586Z,4.50
2018-12-30T14:46:05.396Z,4.40
2018-12-30T14:48:36.826Z,4.30
2018-12-30T14:51:08.197Z,4.30
2018-12-30T14:53:40.105Z,4.30
2018-12-30T14:56:11.486Z,4.20
2018-12-30T14:58:42.917Z,4.20
2018-12-30T15:01:15.200Z,4.20
2018-12-30T15:03:46.760Z,4.20
2018-12-30T15:06:18.394Z,4.20
2018-12-30T15:08:49.793Z,4.10
2018-12-30T15:11:21.184Z,4.10
2018-12-30T15:13:52.660Z,4.00
2018-12-30T15:16:24.712Z,4.00
2018-12-30T15:18:56.325Z,4.00
2018-12-30T15:21:27.747Z,4.10
2018-12-30T15:23:59.827Z,4.20
2018-12-30T15:26:31.380Z,4.60
2018-12-30T15:29:03.090Z,5.10
2018-12-30T15:31:34.450Z,5.40
2018-12-30T15:34:05.572Z,5.50
2018-12-30T15:36:36.963Z,5.40
2018-12-30T15:39:08.973Z,5.40
2018-12-30T15:41:40.162Z,5.30
2018-12-30T15:44:11.374Z,5.00
2018-12-30T15:46:43.655Z,4.70
2018-12-30T15:49:14.806Z,4.60
2018-12-30T15:51:45.998Z,4.40
2018-12-30T15:54:17.212Z,4.30
2018-12-30T15:56:48.430Z,4.20
2018-12-30T15:59:19.564Z,4.30
2018-12-30T16:01:50.833Z,4.10
2018-12-30T16:04:22.070Z,4.10
2018-12-30T16:06:53.317Z,4.00
2018-12-30T16:09:24.455Z,3.90
2018-12-30T16:11:55.629Z,3.80
2018-12-30T16:14:26.777Z,3.80
2018-12-30T16:16:58.004Z,3.80
2018-12-30T16:19:29.188Z,3.80
2018-12-30T16:22:02.579Z,3.70
2018-12-30T16:24:45.367Z,3.80
2018-12-30T16:27:16.493Z,3.70
2018-12-30T16:29:48.770Z,3.70
2018-12-30T16:32:20.052Z,3.70
2018-12-30T16:34:51.125Z,3.70
2018-12-30T16:37:22.485Z,3.80
2018-12-30T16:39:53.583Z,3.70
2018-12-30T16:42:24.717Z,3.60
2018-12-30T16:44:55.773Z,3.70
2018-12-30T16:47:26.903Z,3.60
2018-12-30T16:49:58.037Z,3.50
2018-12-30T16:52:29.219Z,3.50
2018-12-30T16:55:00.300Z,3.50
2018-12-30T16:57:31.435Z,3.50
2018-12-30T17:00:02.508Z,3.30
2018-12-30T17:02:33.692Z,3.30
2018-12-30T17:05:05.836Z,3.30
2018-12-30T17:07:37.441Z,3.30
2018-12-30T17:10:09.526Z,3.30
2018-12-30T17:12:40.636Z,3.30
2018-12-30T17:15:11.776Z,3.20
2018-12-30T17:17:42.901Z,3.20
2018-12-30T17:20:14.002Z,3.20
2018-12-30T17:22:45.139Z,3.20
2018-12-30T17:25:17.312Z,3.20
2018-12-30T17:27:48.410Z,3.20
2018-12-30T17:30:19.564Z,3.20
2018-12-30T17:32:50.995Z,3.20
2018-12-30T17:35:22.089Z,3.30
2018-12-30T17:37:53.162Z,3.30
2018-12-30T17:40:24.296Z,3.30
2018-12-30T17:42:55.451Z,3.30
2018-12-30T17:45:26.514Z,3.30
2018-12-30T17:47:58.400Z,3.20
2018-12-30T17:50:29.496Z,3.20
2018-12-30T17:53:00.624Z,3.10
2018-12-30T17:55:32.881Z,3.20
2018-12-30T17:58:04.023Z,3.20
2018-12-30T18:00:35.072Z,3.10
2018-12-30T18:03:06.290Z,3.10
2018-12-30T18:05:38.329Z,3.20
2018-12-30T18:08:09.417Z,3.10
2018-12-30T18:10:40.496Z,3.10
2018-12-30T18:13:11.626Z,3.20
2018-12-30T18:15:42.733Z,3.20
2018-12-30T18:18:13.866Z,3.30
2018-12-30T18:20:44.925Z,3.30
2018-12-30T18:23:16.027Z,3.30
2018-12-30T18:25:47.117Z,3.30
2018-12-30T18:28:18.314Z,3.30
2018-12-30T18:30:49.379Z,3.20
2018-12-30T18:33:20.761Z,3.20
2018-12-30T18:35:51.857Z,3.20
2018-12-30T18:38:23.098Z,3.10
2018-12-30T18:40:54.261Z,3.10
2018-12-30T18:43:25.408Z,3.20
2018-12-30T18:45:56.556Z,3.20
2018-12-30T18:48:27.776Z,3.20
2018-12-30T18:50:58.835Z,3.00
2018-12-30T18:53:29.969Z,3.00
2018-12-30T18:56:06.698Z,3.10
2018-12-30T18:58:33.910Z,3.10
2018-12-30T19:01:05.004Z,3.10
2018-12-30T19:03:37.108Z,3.10
2018-12-30T19:06:09.337Z,3.20
2018-12-30T19:08:40.479Z,3.20
2018-12-30T19:11:11.643Z,3.20
2018-12-30T19:13:42.743Z,3.20
2018-12-30T19:16:13.868Z,3.20
2018-12-30T19:18:45.034Z,3.10
2018-12-30T19:21:16.155Z,3.20
2018-12-30T19:23:47.334Z,3.20
2018-12-30T19:26:18.478Z,3.10
2018-12-30T19:28:50.631Z,3.00
2018-12-30T19:31:33.092Z,3.10
2018-12-30T19:34:04.323Z,2.90
2018-12-30T19:36:35.423Z,3.00
2018-12-30T19:39:07.995Z,2.90
2018-12-30T19:41:39.220Z,2.90
2018-12-30T19:44:10.339Z,2.90
2018-12-30T19:46:41.497Z,3.00
2018-12-30T19:49:12.622Z,3.00
2018-12-30T19:51:43.708Z,3.00
2018-12-30T19:54:14.769Z,3.00
2018-12-30T19:56:45.915Z,3.00
2018-12-30T19:59:28.803Z,2.90
2018-12-30T20:01:59.909Z,2.90
2018-12-30T20:04:30.988Z,2.80
2018-12-30T20:07:03.597Z,2.80
2018-12-30T20:09:34.685Z,2.80
2018-12-30T20:12:05.810Z,2.80
2018-12-30T20:14:36.886Z,2.80
2018-12-30T20:17:08.037Z,2.80
2018-12-30T20:19:39.103Z,2.90
2018-12-30T20:22:10.300Z,2.80
2018-12-30T20:24:41.400Z,2.90
2018-12-30T20:27:12.570Z,3.00
2018-12-30T20:29:43.672Z,2.90
2018-12-30T20:32:14.936Z,2.90
2018-12-30T20:34:47.357Z,2.90
2018-12-30T20:37:18.452Z,2.90
2018-12-30T20:39:49.584Z,2.90
2018-12-30T20:42:21.787Z,2.90
2018-12-30T20:44:52.928Z,2.90
2018-12-30T20:47:23.993Z,2.90
2018-12-30T20:49:55.297Z,2.90
2018-12-30T20:52:26.373Z,2.90
2018-12-30T20:54:57.501Z,2.90
2018-12-30T20:57:28.612Z,2.90
2018-12-30T20:59:59.720Z,2.90
2018-12-30T21:02:30.792Z,2.90
2018-12-30T21:05:01.937Z,2.90
2018-12-30T21:07:33.260Z,2.80
2018-12-30T21:10:04.503Z,2.90
2018-12-30T21:12:35.583Z,3.00
2018-12-30T21:15:07.315Z,3.00
2018-12-30T21:17:38.527Z,3.00
2018-12-30T21:20:09.789Z,3.00
2018-12-30T21:22:40.919Z,3.00
2018-12-30T21:25:12.130Z,3.00
2018-12-30T21:27:43.333Z,3.00
2018-12-30T21:30:14.513Z,3.00
2018-12-30T21:32:45.561Z,3.00
2018-12-30T21:35:16.953Z,3.00
2018-12-30T21:37:48.253Z,3.00
2018-12-30T21:40:19.351Z,3.00
2018-12-30T21:42:50.472Z,3.00
2018-12-30T21:45:21.553Z,3.00
2018-12-30T21:47:52.759Z,3.10
2018-12-30T21:50:23.831Z,3.10
2018-12-30T21:52:54.967Z,3.10
2018-12-30T21:55:26.148Z,3.10
2018-12-30T21:57:57.579Z,3.00
2018-12-30T22:00:28.729Z,3.00
2018-12-30T22:02:59.841Z,3.00
2018-12-30T22:05:30.921Z,3.00
2018-12-30T22:08:02.192Z,3.00
2018-12-30T22:10:33.356Z,3.00
2018-12-30T22:13:04.532Z,3.00
2018-12-30T22:15:35.668Z,3.00
2018-12-30T22:18:06.874Z,2.90
2018-12-30T22:20:38.178Z,3.00
2018-12-30T22:23:09.367Z,3.00
2018-12-30T22:25:42.150Z,3.10
2018-12-30T22:28:13.339Z,3.10
2018-12-30T22:30:44.438Z,3.10
2018-12-30T22:33:15.529Z,3.20
2018-12-30T22:35:46.875Z,3.10
2018-12-30T22:38:17.945Z,3.10
2018-12-30T22:40:49.468Z,3.10
2018-12-30T22:43:20.916Z,3.20
2018-12-30T22:45:51.992Z,3.20
2018-12-30T22:48:23.082Z,3.20
2018-12-30T22:50:54.189Z,3.20
2018-12-30T22:53:25.454Z,3.20
2018-12-30T22:55:56.562Z,3.10
2018-12-30T22:58:27.635Z,3.10
2018-12-30T23:01:01.264Z,3.10
2018-12-30T23:03:32.830Z,3.10
2018-12-30T23:06:04.001Z,3.10
2018-12-30T23:08:35.217Z,3.00
2018-12-30T23:11:06.435Z,3.10
2018-12-30T23:13:37.669Z,3.00
2018-12-30T23:16:08.779Z,2.90
2018-12-30T23:18:39.970Z,2.90
2018-12-30T23:21:11.229Z,3.00
2018-12-30T23:23:42.328Z,3.00
2018-12-30T23:26:13.506Z,3.00
2018-12-30T23:28:44.627Z,3.00
2018-12-30T23:31:15.780Z,3.00
2018-12-30T23:33:46.888Z,3.00
2018-12-30T23:36:18.381Z,3.10
2018-12-30T23:38:49.466Z,3.10
2018-12-30T23:41:20.585Z,3.10
2018-12-30T23:43:51.683Z,3.10
2018-12-30T23:46:22.794Z,3.10
2018-12-30T23:48:53.877Z,3.20
2018-12-30T23:51:24.985Z,3.20
2018-12-30T23:53:56.081Z,3.20
2018-12-30T23:56:27.179Z,3.20
2018-12-30T23:58:58.261Z,3.20
